Prairie City, Missouri
Current Conditions -  °F | °C
As of 2:55 PM on Saturday 20 Dec 2014 (Local Time) from KGLY Reporting Station
Overcast Overcast  
Wind Chill: 36°   Ceiling: 1500
Heat Index: 41°   Visibility: 8mi
Dew Point: 36°   Wind: 7mph
Humidity: 81%   Direction: 210°SSW
Pressure: 30.18"   Gusts: NA
Location:  38.0755°N, 94.1669°W
Report Text: KGLY 202055Z AUTO 21006KT 8SM OVC015 05/02 A3018 RMK AO2
Loading
Personal Weather Stations






























Interactive Weather Map New forecast layout! Learn more

10-Day Weather Forecast

Advertisements
Track Severe Weather on mobile